Time;durP1;ratioP1;P1;durP2;ratioP2;P2;SDS_P1;SDS_P2;PMS_P1;PMS_P2;Temp;Humidity;BMP_temperature;BMP_pressure;BME280_temperature;BME280_humidity;BME280_pressure;Samples;Min_cycle;Max_cycle;Signal;HPM_P1;HPM_P2
2021/09/30 00:06:37;;;;;;;0.50;0.30;;;19.30;99.90;;;;;;20507283;28;20232;-74
2021/09/30 00:47:53;;;;;;;0.73;0.57;;;19.40;99.90;;;;;;20505221;28;20235;-73
2021/09/30 01:19:22;;;;;;;0.27;0.07;;;19.20;99.90;;;;;;20502131;28;20648;-72
2021/09/30 02:21:56;;;;;;;0.20;0.10;;;19.70;99.90;;;;;;20498614;28;20331;-73
2021/09/30 03:03:15;;;;;;;0.20;0.10;;;19.80;99.90;;;;;;20478470;28;20225;-73
2021/09/30 03:13:22;;;;;;;0.37;0.37;;;19.80;99.90;;;;;;20494352;28;20220;-72
2021/09/30 03:23:30;;;;;;;0.20;0.00;;;19.90;99.90;;;;;;20501413;28;20204;-72
2021/09/30 03:33:37;;;;;;;1.23;0.50;;;19.90;99.90;;;;;;20554770;28;20228;-73
2021/09/30 03:43:40;;;;;;;0.20;0.10;;;19.90;99.90;;;;;;20493418;28;20723;-73
2021/09/30 03:53:56;;;;;;;0.30;0.23;;;19.90;99.90;;;;;;20492144;28;20231;-73
2021/09/30 04:04:00;;;;;;;2.00;0.37;;;19.90;99.90;;;;;;20492550;28;20221;-74
2021/09/30 04:14:05;;;;;;;0.33;0.33;;;19.90;99.90;;;;;;20491751;28;20228;-73
2021/09/30 04:24:09;;;;;;;0.67;0.67;;;19.80;99.90;;;;;;20503173;28;20196;-73
2021/09/30 04:34:15;;;;;;;0.30;0.30;;;19.70;99.90;;;;;;20556167;28;20252;-74
2021/09/30 04:44:21;;;;;;;0.20;0.10;;;19.50;99.90;;;;;;20504397;28;20620;-74
2021/09/30 04:54:26;;;;;;;0.37;0.27;;;19.50;99.90;;;;;;20503616;28;20287;-74
2021/09/30 05:04:30;;;;;;;1.13;1.03;;;19.60;99.90;;;;;;20503213;28;20233;-74
2021/09/30 05:14:36;;;;;;;0.20;0.00;;;19.60;99.90;;;;;;20498155;28;20311;-74
2021/09/30 05:24:40;;;;;;;0.20;0.10;;;19.50;99.90;;;;;;20519267;28;20638;-75
2021/09/30 05:34:46;;;;;;;0.30;0.13;;;19.60;99.90;;;;;;20580370;28;20239;-73
2021/09/30 05:44:50;;;;;;;0.57;0.17;;;19.80;99.90;;;;;;20579999;28;20197;-75
2021/09/30 05:54:56;;;;;;;0.93;0.87;;;19.80;99.90;;;;;;20559227;28;20228;-74
2021/09/30 06:15:31;;;;;;;0.53;0.53;;;19.90;99.90;;;;;;20574221;28;20294;-74
2021/09/30 06:25:35;;;;;;;0.83;0.30;;;19.80;99.90;;;;;;20551540;28;20248;-73
2021/09/30 06:35:40;;;;;;;0.50;0.40;;;19.90;99.90;;;;;;20494664;29;20324;-74
2021/09/30 06:45:44;;;;;;;0.43;0.43;;;20.00;99.90;;;;;;20494038;29;20291;-79
2021/09/30 06:55:50;;;;;;;0.23;0.13;;;20.00;99.90;;;;;;20495466;28;20663;-78
2021/09/30 07:05:53;;;;;;;0.30;0.20;;;20.10;99.90;;;;;;20445885;28;20259;-72
2021/09/30 07:15:58;;;;;;;2.73;1.40;;;20.10;99.90;;;;;;20416770;29;20224;-74
2021/09/30 07:26:03;;;;;;;0.30;0.20;;;20.30;99.90;;;;;;20469998;28;20199;-74
2021/09/30 07:36:08;;;;;;;0.20;0.10;;;20.50;99.90;;;;;;20571691;28;20299;-72
2021/09/30 07:46:11;;;;;;;0.87;0.77;;;20.80;99.90;;;;;;20439279;28;20251;-77
2021/09/30 07:56:16;;;;;;;4.83;0.73;;;20.90;99.90;;;;;;20402264;29;20445;-76
2021/09/30 08:06:21;;;;;;;0.30;0.23;;;21.00;99.90;;;;;;20463961;28;20632;-77
2021/09/30 08:16:30;;;;;;;0.43;0.43;;;21.20;99.90;;;;;;20474381;28;20644;-75
2021/09/30 08:26:36;;;;;;;0.20;0.00;;;21.40;99.90;;;;;;20492659;28;20196;-75
2021/09/30 08:36:43;;;;;;;1.00;0.33;;;21.90;99.90;;;;;;20568537;28;20319;-77
2021/09/30 08:46:46;;;;;;;1.30;0.50;;;22.10;99.90;;;;;;20585089;28;20267;-76
2021/09/30 08:56:52;;;;;;;0.65;0.52;;;22.60;99.90;;;;;;20519909;28;20813;-78
2021/09/30 09:06:56;;;;;;;0.20;0.10;;;23.00;99.90;;;;;;20484197;28;20237;-74
2021/09/30 09:17:02;;;;;;;1.40;0.75;;;23.80;99.90;;;;;;20495543;28;20457;-77
2021/09/30 09:27:06;;;;;;;0.73;0.70;;;24.30;99.90;;;;;;20520295;28;20192;-73
2021/09/30 09:37:22;;;;;;;2.92;0.68;;;24.50;99.90;;;;;;20506803;28;20234;-76
2021/09/30 09:47:32;;;;;;;0.73;0.35;;;24.30;99.90;;;;;;20499580;28;20562;-75
2021/09/30 09:57:40;;;;;;;0.20;0.10;;;24.20;99.90;;;;;;20455618;28;20707;-71
2021/09/30 10:07:44;;;;;;;0.60;0.20;;;24.50;99.90;;;;;;20442056;28;20580;-77
2021/09/30 10:17:49;;;;;;;3.13;0.70;;;25.00;99.90;;;;;;20445617;28;20689;-75
2021/09/30 10:27:56;;;;;;;0.75;0.57;;;25.00;99.90;;;;;;20511827;28;20295;-84
2021/09/30 10:38:23;;;;;;;0.93;0.28;;;25.20;99.90;;;;;;20501320;28;20216;-89
2021/09/30 10:48:42;;;;;;;1.10;0.93;;;25.40;99.90;;;;;;20469324;28;20299;-82
2021/09/30 10:58:48;;;;;;;1.38;0.43;;;26.00;99.90;;;;;;20470960;28;20232;-83
2021/09/30 11:09:14;;;;;;;0.40;0.40;;;26.20;99.90;;;;;;20497848;28;20228;-84
2021/09/30 11:19:41;;;;;;;0.77;0.77;;;26.60;99.90;;;;;;20463943;28;20451;-83
2021/09/30 11:29:46;;;;;;;1.05;0.45;;;27.30;99.90;;;;;;20473379;28;20243;-84
2021/09/30 11:39:53;;;;;;;0.45;0.45;;;27.50;99.90;;;;;;20488026;28;20315;-83
2021/09/30 11:50:01;;;;;;;1.00;0.47;;;27.50;99.90;;;;;;20474420;28;20196;-85
2021/09/30 12:00:14;;;;;;;1.00;0.82;;;28.00;99.90;;;;;;20474814;28;20225;-85
2021/09/30 12:10:18;;;;;;;0.50;0.47;;;27.30;99.90;;;;;;20474108;28;20197;-83
2021/09/30 12:20:23;;;;;;;0.38;0.35;;;28.40;99.90;;;;;;20409500;29;20235;-77
2021/09/30 12:30:28;;;;;;;0.22;0.22;;;27.80;99.90;;;;;;20470277;28;20197;-75
2021/09/30 12:40:40;;;;;;;0.40;0.30;;;27.20;99.90;;;;;;20383228;29;20240;-70
2021/09/30 12:50:48;;;;;;;0.50;0.30;;;27.60;99.90;;;;;;20407174;29;20194;-74
2021/09/30 13:00:56;;;;;;;0.20;0.03;;;29.20;99.90;;;;;;20421852;29;20312;-73
2021/09/30 13:11:23;;;;;;;0.40;0.40;;;29.00;99.90;;;;;;20420263;29;20256;-77
2021/09/30 13:21:28;;;;;;;1.08;0.70;;;29.00;99.90;;;;;;20419665;29;20221;-76
2021/09/30 13:31:32;;;;;;;0.40;0.32;;;29.60;99.90;;;;;;20491995;28;20201;-74
2021/09/30 13:41:37;;;;;;;1.45;0.35;;;27.90;99.90;;;;;;20497995;28;20303;-77
2021/09/30 13:51:41;;;;;;;1.52;0.88;;;30.10;99.90;;;;;;20480053;28;20200;-81
2021/09/30 14:01:46;;;;;;;2.20;0.40;;;30.70;99.90;;;;;;20505183;28;20255;-76
2021/09/30 14:11:52;;;;;;;0.20;0.10;;;31.70;99.90;;;;;;20454629;28;20647;-73
2021/09/30 14:21:58;;;;;;;0.57;0.57;;;28.70;99.90;;;;;;20438484;28;20600;-73
2021/09/30 14:32:02;;;;;;;0.20;0.15;;;27.20;99.90;;;;;;20507934;28;20587;-79
2021/09/30 14:42:09;;;;;;;1.38;0.52;;;25.90;99.90;;;;;;20476372;28;20290;-76
2021/09/30 14:52:14;;;;;;;4.68;0.63;;;28.60;99.90;;;;;;20436347;28;20656;-81
2021/09/30 15:02:20;;;;;;;0.70;0.40;;;27.80;99.90;;;;;;20396650;29;20241;-74
2021/09/30 15:12:24;;;;;;;1.38;0.32;;;29.30;99.90;;;;;;20412917;29;20193;-72
2021/09/30 15:22:29;;;;;;;2.05;0.75;;;27.70;99.90;;;;;;20411357;29;20272;-77
2021/09/30 15:32:33;;;;;;;0.20;0.10;;;25.30;99.90;;;;;;20470709;28;20284;-75
2021/09/30 15:42:38;;;;;;;0.30;0.10;;;25.80;99.90;;;;;;20491031;28;20624;-74
2021/09/30 15:52:42;;;;;;;0.40;0.30;;;26.50;99.90;;;;;;20452893;28;20670;-71
2021/09/30 16:02:47;;;;;;;2.20;0.55;;;26.00;99.90;;;;;;20458980;28;20718;-76
2021/09/30 16:12:51;;;;;;;0.20;0.08;;;25.40;99.90;;;;;;20452987;28;20257;-75
2021/09/30 16:22:56;;;;;;;1.40;1.30;;;24.40;99.90;;;;;;20437525;28;20647;-74
2021/09/30 16:33:01;;;;;;;0.20;0.00;;;24.30;99.90;;;;;;20565665;28;20193;-75
2021/09/30 16:43:06;;;;;;;0.20;0.10;;;24.00;99.90;;;;;;20474336;28;20591;-73
2021/09/30 16:53:10;;;;;;;0.52;0.38;;;23.70;99.90;;;;;;20420209;29;20280;-68
2021/09/30 17:03:15;;;;;;;0.32;0.28;;;23.60;99.90;;;;;;20420419;29;20261;-67
2021/09/30 17:13:19;;;;;;;0.85;0.65;;;23.60;99.90;;;;;;20422557;29;20198;-66
2021/09/30 17:23:24;;;;;;;0.30;0.22;;;23.40;99.90;;;;;;20435146;28;20322;-67
2021/09/30 17:33:28;;;;;;;0.30;0.30;;;23.40;99.90;;;;;;20561424;28;20355;-66
2021/09/30 17:43:33;;;;;;;1.05;0.65;;;23.10;99.90;;;;;;20498025;28;20345;-66
2021/09/30 17:53:37;;;;;;;2.00;0.85;;;23.30;99.90;;;;;;20482119;28;20201;-69
2021/09/30 18:03:42;;;;;;;0.20;0.10;;;23.20;99.90;;;;;;20498071;28;20539;-66
2021/09/30 18:13:47;;;;;;;0.25;0.25;;;23.40;99.90;;;;;;20463816;28;20223;-69
2021/09/30 18:24:02;;;;;;;0.28;0.28;;;23.40;99.90;;;;;;20506531;28;20698;-69
2021/09/30 18:34:08;;;;;;;0.68;0.40;;;23.40;99.90;;;;;;20463922;28;20211;-67
2021/09/30 18:44:13;;;;;;;0.55;0.55;;;23.20;99.90;;;;;;20447041;28;20221;-70
2021/09/30 18:54:18;;;;;;;3.22;0.38;;;23.00;99.90;;;;;;20449845;28;20677;-70
2021/09/30 19:04:24;;;;;;;1.17;0.52;;;23.00;99.90;;;;;;20475618;28;20243;-68
2021/09/30 19:14:28;;;;;;;0.45;0.20;;;22.70;99.90;;;;;;20451999;28;20220;-68
2021/09/30 19:24:33;;;;;;;7.33;0.67;;;22.50;99.90;;;;;;20482627;28;20231;-70
2021/09/30 19:34:37;;;;;;;0.28;0.28;;;22.60;99.90;;;;;;20518561;28;20207;-69
2021/09/30 19:44:45;;;;;;;0.57;0.57;;;22.10;99.90;;;;;;20489147;28;20250;-68
2021/09/30 19:54:48;;;;;;;0.50;0.50;;;21.70;99.90;;;;;;20412018;28;20216;-69
2021/09/30 20:04:53;;;;;;;1.60;0.80;;;21.40;99.90;;;;;;20418897;29;20225;-68
2021/09/30 20:14:57;;;;;;;0.40;0.20;;;21.30;99.90;;;;;;20436492;28;20272;-67
2021/09/30 20:25:02;;;;;;;0.20;0.10;;;21.00;99.90;;;;;;20448442;28;20289;-67
2021/09/30 20:35:08;;;;;;;0.20;0.20;;;20.90;99.90;;;;;;20474716;28;20201;-68
2021/09/30 20:45:13;;;;;;;0.50;0.43;;;20.60;99.90;;;;;;20502062;28;20292;-67
2021/09/30 20:55:22;;;;;;;0.97;0.37;;;20.50;99.90;;;;;;20498703;28;20213;-67
2021/09/30 21:05:27;;;;;;;5.03;0.70;;;20.40;99.90;;;;;;20515974;28;20233;-68
2021/09/30 21:15:31;;;;;;;1.17;0.20;;;20.30;99.90;;;;;;20496907;28;20280;-68
2021/09/30 21:25:36;;;;;;;8.03;0.60;;;20.00;99.90;;;;;;20494987;28;20203;-68
2021/09/30 21:35:40;;;;;;;0.57;0.20;;;19.80;99.90;;;;;;20468002;28;20572;-68
2021/09/30 21:45:45;;;;;;;0.20;0.20;;;19.80;99.90;;;;;;20460182;28;20197;-69
2021/09/30 21:55:49;;;;;;;0.40;0.30;;;19.70;99.90;;;;;;20480214;28;20534;-68
2021/09/30 22:05:54;;;;;;;0.20;0.20;;;19.70;99.90;;;;;;20480256;28;20224;-69
2021/09/30 22:15:58;;;;;;;2.17;0.37;;;19.80;99.90;;;;;;20449528;28;20232;-69
2021/09/30 22:26:03;;;;;;;0.63;0.50;;;19.90;99.90;;;;;;20466522;28;20197;-69
2021/09/30 22:36:06;;;;;;;0.50;0.50;;;20.00;99.90;;;;;;20472873;28;20683;-69
2021/09/30 22:46:11;;;;;;;0.40;0.30;;;20.10;99.90;;;;;;20453881;28;20320;-69
2021/09/30 22:56:16;;;;;;;0.20;0.17;;;20.10;99.90;;;;;;20457000;28;20227;-69
2021/09/30 23:06:21;;;;;;;0.43;0.40;;;20.10;99.90;;;;;;20451957;28;20762;-70
2021/09/30 23:16:25;;;;;;;0.33;0.23;;;20.00;99.90;;;;;;20453075;28;20225;-69
2021/09/30 23:26:30;;;;;;;0.30;0.20;;;20.00;99.90;;;;;;20455562;28;20208;-69
2021/09/30 23:36:34;;;;;;;0.80;0.40;;;20.00;99.90;;;;;;20456747;28;20221;-69
2021/09/30 23:46:39;;;;;;;0.53;0.53;;;19.90;99.90;;;;;;20439362;28;20193;-70
2021/09/30 23:56:42;;;;;;;0.20;0.10;;;19.90;99.90;;;;;;20491604;28;20225;-69
